sensor_id;sensor_type;location;lat;lon;timestamp;P1;durP1;ratioP1;P2;durP2;ratioP2
63926;SDS011;50103;47.960;21.712;2022-10-16T05:03:49;46.80;;;30.80;;
63926;SDS011;50103;47.960;21.712;2022-10-16T05:06:14;46.40;;;31.10;;
63926;SDS011;50103;47.960;21.712;2022-10-16T05:08:40;43.30;;;30.80;;
63926;SDS011;50103;47.960;21.712;2022-10-16T05:11:05;45.90;;;31.40;;
63926;SDS011;50103;47.960;21.712;2022-10-16T05:13:31;44.40;;;30.80;;
63926;SDS011;50103;47.960;21.712;2022-10-16T05:15:56;44.80;;;30.60;;
63926;SDS011;50103;47.960;21.712;2022-10-16T05:18:22;45.70;;;30.50;;
63926;SDS011;50103;47.960;21.712;2022-10-16T05:20:47;46.00;;;30.90;;
63926;SDS011;50103;47.960;21.712;2022-10-16T05:23:13;45.00;;;31.40;;
63926;SDS011;50103;47.960;21.712;2022-10-16T05:25:38;46.40;;;31.50;;
63926;SDS011;50103;47.960;21.712;2022-10-16T05:28:04;44.90;;;31.60;;
63926;SDS011;50103;47.960;21.712;2022-10-16T05:30:29;46.40;;;31.30;;
63926;SDS011;50103;47.960;21.712;2022-10-16T05:32:55;47.10;;;33.90;;
63926;SDS011;50103;47.960;21.712;2022-10-16T05:35:20;46.00;;;32.50;;
63926;SDS011;50103;47.960;21.712;2022-10-16T05:37:46;46.70;;;32.40;;
63926;SDS011;50103;47.960;21.712;2022-10-16T05:40:12;46.90;;;33.40;;
63926;SDS011;50103;47.960;21.712;2022-10-16T05:42:38;48.80;;;33.00;;
63926;SDS011;50103;47.960;21.712;2022-10-16T05:45:05;47.20;;;33.20;;
63926;SDS011;50103;47.960;21.712;2022-10-16T05:47:31;47.80;;;32.60;;
63926;SDS011;50103;47.960;21.712;2022-10-16T05:49:57;46.70;;;33.80;;
63926;SDS011;50103;47.960;21.712;2022-10-16T05:52:22;49.60;;;34.60;;
63926;SDS011;50103;47.960;21.712;2022-10-16T05:54:48;48.20;;;34.60;;
63926;SDS011;50103;47.960;21.712;2022-10-16T05:57:13;50.90;;;35.90;;
63926;SDS011;50103;47.960;21.712;2022-10-16T05:59:39;48.10;;;34.90;;
63926;SDS011;50103;47.960;21.712;2022-10-16T06:02:05;48.30;;;35.50;;
63926;SDS011;50103;47.960;21.712;2022-10-16T06:04:30;47.80;;;32.20;;
63926;SDS011;50103;47.960;21.712;2022-10-16T06:06:58;45.70;;;33.20;;
63926;SDS011;50103;47.960;21.712;2022-10-16T06:09:25;47.00;;;33.60;;
63926;SDS011;50103;47.960;21.712;2022-10-16T06:11:51;46.80;;;33.40;;
63926;SDS011;50103;47.960;21.712;2022-10-16T06:14:16;46.50;;;32.50;;
63926;SDS011;50103;47.960;21.712;2022-10-16T06:16:42;44.80;;;32.20;;
63926;SDS011;50103;47.960;21.712;2022-10-16T06:19:07;46.20;;;33.10;;
63926;SDS011;50103;47.960;21.712;2022-10-16T06:21:34;48.20;;;31.80;;
63926;SDS011;50103;47.960;21.712;2022-10-16T06:24:00;48.90;;;33.00;;
63926;SDS011;50103;47.960;21.712;2022-10-16T06:26:28;46.50;;;32.20;;
63926;SDS011;50103;47.960;21.712;2022-10-16T06:28:56;49.00;;;31.30;;
63926;SDS011;50103;47.960;21.712;2022-10-16T06:31:22;44.00;;;30.60;;
63926;SDS011;50103;47.960;21.712;2022-10-16T06:33:52;44.40;;;30.10;;
63926;SDS011;50103;47.960;21.712;2022-10-16T06:36:19;41.70;;;27.00;;
63926;SDS011;50103;47.960;21.712;2022-10-16T06:38:45;42.70;;;28.00;;
63926;SDS011;50103;47.960;21.712;2022-10-16T06:41:12;44.20;;;30.50;;
63926;SDS011;50103;47.960;21.712;2022-10-16T06:43:38;42.00;;;29.00;;
63926;SDS011;50103;47.960;21.712;2022-10-16T06:46:05;46.80;;;31.30;;
63926;SDS011;50103;47.960;21.712;2022-10-16T06:48:34;45.30;;;31.10;;
63926;SDS011;50103;47.960;21.712;2022-10-16T06:51:04;46.50;;;32.60;;
63926;SDS011;50103;47.960;21.712;2022-10-16T06:53:32;49.50;;;33.20;;
63926;SDS011;50103;47.960;21.712;2022-10-16T06:56:06;49.60;;;34.40;;
63926;SDS011;50103;47.960;21.712;2022-10-16T06:58:33;47.60;;;32.40;;
63926;SDS011;50103;47.960;21.712;2022-10-16T07:00:59;50.80;;;32.40;;
63926;SDS011;50103;47.960;21.712;2022-10-16T07:03:24;47.80;;;30.60;;
63926;SDS011;50103;47.960;21.712;2022-10-16T07:05:50;47.10;;;31.70;;
63926;SDS011;50103;47.960;21.712;2022-10-16T07:08:15;44.60;;;31.60;;
63926;SDS011;50103;47.960;21.712;2022-10-16T07:10:40;52.50;;;35.30;;
63926;SDS011;50103;47.960;21.712;2022-10-16T07:13:06;49.20;;;34.30;;
63926;SDS011;50103;47.960;21.712;2022-10-16T07:15:33;48.60;;;33.20;;
63926;SDS011;50103;47.960;21.712;2022-10-16T07:17:59;49.60;;;32.90;;
63926;SDS011;50103;47.960;21.712;2022-10-16T07:20:24;47.70;;;32.60;;
63926;SDS011;50103;47.960;21.712;2022-10-16T07:22:50;47.60;;;33.10;;
63926;SDS011;50103;47.960;21.712;2022-10-16T07:25:16;50.90;;;32.50;;
63926;SDS011;50103;47.960;21.712;2022-10-16T07:27:41;46.50;;;32.40;;
63926;SDS011;50103;47.960;21.712;2022-10-16T07:30:07;46.00;;;31.40;;
63926;SDS011;50103;47.960;21.712;2022-10-16T07:32:33;43.80;;;30.40;;
63926;SDS011;50103;47.960;21.712;2022-10-16T07:34:58;47.50;;;31.20;;
63926;SDS011;50103;47.960;21.712;2022-10-16T07:37:23;46.60;;;31.20;;
63926;SDS011;50103;47.960;21.712;2022-10-16T07:39:49;45.80;;;29.90;;
63926;SDS011;50103;47.960;21.712;2022-10-16T07:42:14;42.20;;;28.50;;
63926;SDS011;50103;47.960;21.712;2022-10-16T07:44:40;40.70;;;27.20;;
63926;SDS011;50103;47.960;21.712;2022-10-16T07:47:06;45.60;;;27.80;;
63926;SDS011;50103;47.960;21.712;2022-10-16T07:49:32;42.20;;;26.60;;
63926;SDS011;50103;47.960;21.712;2022-10-16T07:51:57;40.30;;;25.10;;
63926;SDS011;50103;47.960;21.712;2022-10-16T07:54:23;38.00;;;23.70;;
63926;SDS011;50103;47.960;21.712;2022-10-16T07:56:49;39.70;;;24.30;;
63926;SDS011;50103;47.960;21.712;2022-10-16T07:59:14;36.80;;;22.70;;
63926;SDS011;50103;47.960;21.712;2022-10-16T08:01:40;37.50;;;22.20;;
63926;SDS011;50103;47.960;21.712;2022-10-16T08:04:08;38.30;;;22.10;;
63926;SDS011;50103;47.960;21.712;2022-10-16T08:06:35;39.60;;;22.10;;
63926;SDS011;50103;47.960;21.712;2022-10-16T08:09:04;36.80;;;21.50;;
63926;SDS011;50103;47.960;21.712;2022-10-16T08:11:31;41.20;;;23.20;;
63926;SDS011;50103;47.960;21.712;2022-10-16T08:13:57;39.50;;;22.60;;
63926;SDS011;50103;47.960;21.712;2022-10-16T08:16:22;38.00;;;21.30;;
63926;SDS011;50103;47.960;21.712;2022-10-16T08:18:48;37.50;;;21.30;;
63926;SDS011;50103;47.960;21.712;2022-10-16T08:21:17;37.80;;;22.20;;
63926;SDS011;50103;47.960;21.712;2022-10-16T08:23:44;36.90;;;20.40;;
63926;SDS011;50103;47.960;21.712;2022-10-16T08:26:10;37.00;;;19.20;;
63926;SDS011;50103;47.960;21.712;2022-10-16T08:28:36;33.20;;;18.20;;
63926;SDS011;50103;47.960;21.712;2022-10-16T08:31:06;32.80;;;18.40;;
63926;SDS011;50103;47.960;21.712;2022-10-16T08:33:33;36.30;;;20.10;;
63926;SDS011;50103;47.960;21.712;2022-10-16T08:36:00;36.40;;;20.30;;
63926;SDS011;50103;47.960;21.712;2022-10-16T08:38:26;33.30;;;19.30;;
63926;SDS011;50103;47.960;21.712;2022-10-16T08:40:52;34.40;;;19.60;;
63926;SDS011;50103;47.960;21.712;2022-10-16T08:43:34;37.80;;;20.10;;
63926;SDS011;50103;47.960;21.712;2022-10-16T08:48:54;35.90;;;19.70;;
63926;SDS011;50103;47.960;21.712;2022-10-16T08:51:35;32.10;;;18.20;;
63926;SDS011;50103;47.960;21.712;2022-10-16T08:56:27;30.20;;;15.30;;
63926;SDS011;50103;47.960;21.712;2022-10-16T08:58:53;30.80;;;15.70;;
63926;SDS011;50103;47.960;21.712;2022-10-16T09:01:21;31.20;;;16.20;;
63926;SDS011;50103;47.960;21.712;2022-10-16T09:12:22;47.50;;;25.60;;
63926;SDS011;50103;47.960;21.712;2022-10-16T09:17:41;27.60;;;13.10;;
63926;SDS011;50103;47.960;21.712;2022-10-16T09:23:00;27.90;;;12.30;;
63926;SDS011;50103;47.960;21.712;2022-10-16T09:25:38;26.10;;;11.00;;
63926;SDS011;50103;47.960;21.712;2022-10-16T09:28:07;31.00;;;13.20;;
63926;SDS011;50103;47.960;21.712;2022-10-16T09:30:34;30.00;;;12.90;;
63926;SDS011;50103;47.960;21.712;2022-10-16T09:32:59;25.90;;;12.20;;
63926;SDS011;50103;47.960;21.712;2022-10-16T09:35:48;27.00;;;12.20;;
63926;SDS011;50103;47.960;21.712;2022-10-16T09:38:21;28.10;;;11.90;;
63926;SDS011;50103;47.960;21.712;2022-10-16T09:46:05;28.10;;;10.60;;
63926;SDS011;50103;47.960;21.712;2022-10-16T09:48:37;26.70;;;10.30;;
63926;SDS011;50103;47.960;21.712;2022-10-16T09:51:16;26.30;;;11.20;;
63926;SDS011;50103;47.960;21.712;2022-10-16T09:53:56;26.40;;;11.10;;
63926;SDS011;50103;47.960;21.712;2022-10-16T09:56:30;28.40;;;11.40;;
63926;SDS011;50103;47.960;21.712;2022-10-16T09:59:13;27.20;;;10.70;;
63926;SDS011;50103;47.960;21.712;2022-10-16T10:01:41;23.60;;;10.00;;
63926;SDS011;50103;47.960;21.712;2022-10-16T10:04:10;25.60;;;10.80;;
63926;SDS011;50103;47.960;21.712;2022-10-16T10:06:44;28.20;;;10.70;;
63926;SDS011;50103;47.960;21.712;2022-10-16T10:09:25;24.40;;;10.30;;
63926;SDS011;50103;47.960;21.712;2022-10-16T10:11:56;30.60;;;10.30;;
63926;SDS011;50103;47.960;21.712;2022-10-16T10:35:14;25.50;;;8.30;;
63926;SDS011;50103;47.960;21.712;2022-10-16T10:37:51;23.50;;;9.30;;
63926;SDS011;50103;47.960;21.712;2022-10-16T10:40:27;24.00;;;8.40;;
63926;SDS011;50103;47.960;21.712;2022-10-16T10:45:48;28.30;;;11.00;;
63926;SDS011;50103;47.960;21.712;2022-10-16T10:48:23;27.00;;;9.40;;
63926;SDS011;50103;47.960;21.712;2022-10-16T10:59:32;24.20;;;8.10;;
63926;SDS011;50103;47.960;21.712;2022-10-16T11:07:47;25.20;;;8.50;;
63926;SDS011;50103;47.960;21.712;2022-10-16T11:10:21;22.80;;;7.60;;
63926;SDS011;50103;47.960;21.712;2022-10-16T11:12:53;23.50;;;7.70;;
63926;SDS011;50103;47.960;21.712;2022-10-16T11:15:28;23.20;;;7.60;;
63926;SDS011;50103;47.960;21.712;2022-10-16T11:18:03;23.60;;;7.70;;
63926;SDS011;50103;47.960;21.712;2022-10-16T11:20:56;23.20;;;8.40;;
63926;SDS011;50103;47.960;21.712;2022-10-16T11:23:29;24.60;;;6.80;;
63926;SDS011;50103;47.960;21.712;2022-10-16T11:26:02;21.30;;;7.40;;
63926;SDS011;50103;47.960;21.712;2022-10-16T11:33:57;21.50;;;7.20;;
63926;SDS011;50103;47.960;21.712;2022-10-16T11:39:29;22.40;;;7.10;;
63926;SDS011;50103;47.960;21.712;2022-10-16T11:47:07;22.40;;;6.90;;
63926;SDS011;50103;47.960;21.712;2022-10-16T11:49:40;22.80;;;7.20;;
63926;SDS011;50103;47.960;21.712;2022-10-16T11:52:15;19.90;;;6.00;;
63926;SDS011;50103;47.960;21.712;2022-10-16T11:54:53;21.70;;;6.60;;
63926;SDS011;50103;47.960;21.712;2022-10-16T11:57:28;23.00;;;6.60;;
63926;SDS011;50103;47.960;21.712;2022-10-16T12:00:14;22.60;;;6.70;;
63926;SDS011;50103;47.960;21.712;2022-10-16T12:05:58;23.50;;;7.50;;
63926;SDS011;50103;47.960;21.712;2022-10-16T12:08:25;21.90;;;6.90;;
63926;SDS011;50103;47.960;21.712;2022-10-16T12:10:52;20.70;;;6.20;;
63926;SDS011;50103;47.960;21.712;2022-10-16T12:18:38;21.60;;;6.10;;
63926;SDS011;50103;47.960;21.712;2022-10-16T12:21:11;21.20;;;6.60;;
63926;SDS011;50103;47.960;21.712;2022-10-16T12:26:33;20.10;;;6.00;;
63926;SDS011;50103;47.960;21.712;2022-10-16T12:29:23;19.70;;;5.60;;
63926;SDS011;50103;47.960;21.712;2022-10-16T12:31:52;19.60;;;6.00;;
63926;SDS011;50103;47.960;21.712;2022-10-16T12:35:00;19.70;;;5.30;;
63926;SDS011;50103;47.960;21.712;2022-10-16T12:37:13;20.80;;;5.80;;
63926;SDS011;50103;47.960;21.712;2022-10-16T12:39:44;19.40;;;5.80;;
63926;SDS011;50103;47.960;21.712;2022-10-16T12:44:52;22.30;;;5.40;;
63926;SDS011;50103;47.960;21.712;2022-10-16T12:50:24;19.40;;;5.00;;
63926;SDS011;50103;47.960;21.712;2022-10-16T12:52:51;19.20;;;5.30;;
63926;SDS011;50103;47.960;21.712;2022-10-16T12:55:18;19.40;;;5.50;;
63926;SDS011;50103;47.960;21.712;2022-10-16T13:03:08;21.60;;;5.00;;
63926;SDS011;50103;47.960;21.712;2022-10-16T13:05:59;19.00;;;5.20;;
63926;SDS011;50103;47.960;21.712;2022-10-16T13:17:30;19.40;;;5.30;;
63926;SDS011;50103;47.960;21.712;2022-10-16T13:20:19;18.00;;;4.80;;
63926;SDS011;50103;47.960;21.712;2022-10-16T13:25:59;21.10;;;5.20;;
63926;SDS011;50103;47.960;21.712;2022-10-16T13:28:33;19.60;;;5.10;;
63926;SDS011;50103;47.960;21.712;2022-10-16T13:31:00;18.80;;;5.40;;
63926;SDS011;50103;47.960;21.712;2022-10-16T13:33:35;19.80;;;5.40;;
63926;SDS011;50103;47.960;21.712;2022-10-16T13:36:03;21.20;;;5.40;;
63926;SDS011;50103;47.960;21.712;2022-10-16T13:38:30;17.40;;;5.00;;
63926;SDS011;50103;47.960;21.712;2022-10-16T13:40:59;23.60;;;5.10;;
63926;SDS011;50103;47.960;21.712;2022-10-16T13:48:56;22.10;;;5.80;;
63926;SDS011;50103;47.960;21.712;2022-10-16T13:51:27;21.60;;;5.90;;
63926;SDS011;50103;47.960;21.712;2022-10-16T13:53:54;21.90;;;5.50;;
63926;SDS011;50103;47.960;21.712;2022-10-16T13:56:22;21.50;;;5.70;;
63926;SDS011;50103;47.960;21.712;2022-10-16T13:59:06;20.20;;;5.40;;
63926;SDS011;50103;47.960;21.712;2022-10-16T14:01:47;20.20;;;6.00;;
63926;SDS011;50103;47.960;21.712;2022-10-16T14:04:13;20.40;;;5.60;;
63926;SDS011;50103;47.960;21.712;2022-10-16T14:06:41;23.00;;;5.90;;
63926;SDS011;50103;47.960;21.712;2022-10-16T14:11:51;21.80;;;6.10;;
63926;SDS011;50103;47.960;21.712;2022-10-16T14:14:20;20.30;;;5.80;;
63926;SDS011;50103;47.960;21.712;2022-10-16T14:16:47;23.90;;;5.60;;
63926;SDS011;50103;47.960;21.712;2022-10-16T14:19:22;21.60;;;6.30;;
63926;SDS011;50103;47.960;21.712;2022-10-16T14:21:51;22.00;;;6.30;;
63926;SDS011;50103;47.960;21.712;2022-10-16T14:26:54;20.80;;;5.90;;
63926;SDS011;50103;47.960;21.712;2022-10-16T14:29:21;19.90;;;6.30;;
63926;SDS011;50103;47.960;21.712;2022-10-16T14:32:22;20.30;;;5.80;;
63926;SDS011;50103;47.960;21.712;2022-10-16T14:34:52;20.60;;;6.00;;
63926;SDS011;50103;47.960;21.712;2022-10-16T14:37:23;20.90;;;6.20;;
63926;SDS011;50103;47.960;21.712;2022-10-16T14:39:52;20.80;;;5.70;;
63926;SDS011;50103;47.960;21.712;2022-10-16T14:42:20;22.00;;;6.20;;
63926;SDS011;50103;47.960;21.712;2022-10-16T14:44:50;21.80;;;7.10;;
63926;SDS011;50103;47.960;21.712;2022-10-16T14:47:20;19.80;;;5.80;;
63926;SDS011;50103;47.960;21.712;2022-10-16T14:52:18;25.00;;;6.50;;
63926;SDS011;50103;47.960;21.712;2022-10-16T14:54:43;21.10;;;6.60;;
63926;SDS011;50103;47.960;21.712;2022-10-16T14:57:17;22.10;;;6.40;;
63926;SDS011;50103;47.960;21.712;2022-10-16T14:59:44;21.60;;;7.30;;
63926;SDS011;50103;47.960;21.712;2022-10-16T15:02:19;24.00;;;6.80;;
63926;SDS011;50103;47.960;21.712;2022-10-16T15:04:45;24.80;;;6.90;;
63926;SDS011;50103;47.960;21.712;2022-10-16T15:07:11;21.60;;;6.30;;
63926;SDS011;50103;47.960;21.712;2022-10-16T15:09:37;21.40;;;6.80;;
63926;SDS011;50103;47.960;21.712;2022-10-16T15:12:02;24.60;;;7.10;;
63926;SDS011;50103;47.960;21.712;2022-10-16T15:14:28;22.50;;;7.50;;
63926;SDS011;50103;47.960;21.712;2022-10-16T15:16:53;24.20;;;7.30;;
63926;SDS011;50103;47.960;21.712;2022-10-16T15:19:18;20.60;;;6.70;;
63926;SDS011;50103;47.960;21.712;2022-10-16T15:21:44;23.00;;;7.40;;
63926;SDS011;50103;47.960;21.712;2022-10-16T15:24:13;25.40;;;8.30;;
63926;SDS011;50103;47.960;21.712;2022-10-16T15:26:40;24.90;;;7.80;;
63926;SDS011;50103;47.960;21.712;2022-10-16T15:29:05;23.00;;;8.00;;
63926;SDS011;50103;47.960;21.712;2022-10-16T15:31:31;25.10;;;8.60;;
63926;SDS011;50103;47.960;21.712;2022-10-16T15:33:57;26.20;;;9.00;;
63926;SDS011;50103;47.960;21.712;2022-10-16T15:36:29;26.00;;;9.10;;
63926;SDS011;50103;47.960;21.712;2022-10-16T15:38:58;23.60;;;8.70;;
63926;SDS011;50103;47.960;21.712;2022-10-16T15:41:24;26.30;;;8.80;;
63926;SDS011;50103;47.960;21.712;2022-10-16T15:43:50;26.70;;;10.60;;
63926;SDS011;50103;47.960;21.712;2022-10-16T15:46:19;28.60;;;10.20;;
63926;SDS011;50103;47.960;21.712;2022-10-16T15:48:47;28.00;;;10.80;;
63926;SDS011;50103;47.960;21.712;2022-10-16T15:51:13;28.70;;;11.80;;
63926;SDS011;50103;47.960;21.712;2022-10-16T15:53:39;34.00;;;12.70;;
63926;SDS011;50103;47.960;21.712;2022-10-16T15:56:05;34.80;;;14.50;;
63926;SDS011;50103;47.960;21.712;2022-10-16T15:58:32;33.00;;;14.10;;
63926;SDS011;50103;47.960;21.712;2022-10-16T16:00:58;36.00;;;13.00;;
63926;SDS011;50103;47.960;21.712;2022-10-16T16:03:29;31.00;;;13.40;;
63926;SDS011;50103;47.960;21.712;2022-10-16T16:05:55;33.70;;;14.10;;
63926;SDS011;50103;47.960;21.712;2022-10-16T16:08:21;31.10;;;12.10;;
63926;SDS011;50103;47.960;21.712;2022-10-16T16:10:57;31.80;;;13.50;;
63926;SDS011;50103;47.960;21.712;2022-10-16T16:13:24;31.40;;;13.30;;
63926;SDS011;50103;47.960;21.712;2022-10-16T16:15:50;36.80;;;14.50;;
63926;SDS011;50103;47.960;21.712;2022-10-16T16:18:15;33.00;;;14.70;;
63926;SDS011;50103;47.960;21.712;2022-10-16T16:20:41;29.60;;;12.90;;
63926;SDS011;50103;47.960;21.712;2022-10-16T16:23:07;33.90;;;14.80;;
63926;SDS011;50103;47.960;21.712;2022-10-16T16:25:32;34.90;;;15.50;;
63926;SDS011;50103;47.960;21.712;2022-10-16T16:27:58;34.10;;;14.00;;
63926;SDS011;50103;47.960;21.712;2022-10-16T16:30:23;35.90;;;14.20;;
63926;SDS011;50103;47.960;21.712;2022-10-16T16:32:50;34.80;;;14.80;;
63926;SDS011;50103;47.960;21.712;2022-10-16T16:35:15;32.70;;;14.60;;
63926;SDS011;50103;47.960;21.712;2022-10-16T16:37:41;32.90;;;14.80;;
63926;SDS011;50103;47.960;21.712;2022-10-16T16:40:06;34.70;;;15.10;;
63926;SDS011;50103;47.960;21.712;2022-10-16T16:42:32;32.50;;;15.40;;
63926;SDS011;50103;47.960;21.712;2022-10-16T16:44:57;35.20;;;16.30;;
63926;SDS011;50103;47.960;21.712;2022-10-16T16:47:22;34.80;;;15.80;;
63926;SDS011;50103;47.960;21.712;2022-10-16T16:49:48;33.30;;;16.00;;
63926;SDS011;50103;47.960;21.712;2022-10-16T16:52:14;33.10;;;16.20;;
63926;SDS011;50103;47.960;21.712;2022-10-16T16:54:39;34.30;;;15.60;;
63926;SDS011;50103;47.960;21.712;2022-10-16T16:57:05;32.00;;;16.70;;
63926;SDS011;50103;47.960;21.712;2022-10-16T16:59:30;34.20;;;15.90;;
63926;SDS011;50103;47.960;21.712;2022-10-16T17:02:01;34.70;;;15.80;;
63926;SDS011;50103;47.960;21.712;2022-10-16T17:04:27;34.50;;;16.80;;
63926;SDS011;50103;47.960;21.712;2022-10-16T17:06:53;35.00;;;17.10;;
63926;SDS011;50103;47.960;21.712;2022-10-16T17:09:19;37.60;;;17.70;;
63926;SDS011;50103;47.960;21.712;2022-10-16T17:11:46;35.40;;;16.40;;
63926;SDS011;50103;47.960;21.712;2022-10-16T17:14:13;37.40;;;18.20;;
63926;SDS011;50103;47.960;21.712;2022-10-16T17:16:39;37.40;;;18.80;;
63926;SDS011;50103;47.960;21.712;2022-10-16T17:19:13;36.60;;;18.80;;
63926;SDS011;50103;47.960;21.712;2022-10-16T17:21:40;37.90;;;19.60;;
63926;SDS011;50103;47.960;21.712;2022-10-16T17:24:07;36.00;;;19.70;;
63926;SDS011;50103;47.960;21.712;2022-10-16T17:26:33;39.90;;;19.20;;
63926;SDS011;50103;47.960;21.712;2022-10-16T17:29:02;35.90;;;19.50;;
63926;SDS011;50103;47.960;21.712;2022-10-16T17:31:30;40.80;;;20.30;;
63926;SDS011;50103;47.960;21.712;2022-10-16T17:33:58;42.80;;;20.10;;
63926;SDS011;50103;47.960;21.712;2022-10-16T17:36:25;41.80;;;20.30;;
63926;SDS011;50103;47.960;21.712;2022-10-16T17:38:53;41.90;;;22.20;;
63926;SDS011;50103;47.960;21.712;2022-10-16T17:41:20;46.60;;;23.30;;
63926;SDS011;50103;47.960;21.712;2022-10-16T17:43:48;41.40;;;22.70;;
63926;SDS011;50103;47.960;21.712;2022-10-16T17:46:15;42.80;;;24.00;;
63926;SDS011;50103;47.960;21.712;2022-10-16T17:48:43;42.10;;;24.10;;
63926;SDS011;50103;47.960;21.712;2022-10-16T17:51:11;43.30;;;24.70;;
63926;SDS011;50103;47.960;21.712;2022-10-16T17:53:38;46.70;;;24.80;;
63926;SDS011;50103;47.960;21.712;2022-10-16T17:56:05;43.80;;;26.50;;
63926;SDS011;50103;47.960;21.712;2022-10-16T17:58:35;48.70;;;26.40;;
63926;SDS011;50103;47.960;21.712;2022-10-16T18:01:01;45.90;;;25.90;;
63926;SDS011;50103;47.960;21.712;2022-10-16T18:03:35;47.30;;;26.80;;
63926;SDS011;50103;47.960;21.712;2022-10-16T18:06:01;50.50;;;29.20;;
63926;SDS011;50103;47.960;21.712;2022-10-16T18:08:28;43.70;;;25.80;;
63926;SDS011;50103;47.960;21.712;2022-10-16T18:10:54;44.90;;;26.10;;
63926;SDS011;50103;47.960;21.712;2022-10-16T18:13:19;45.60;;;24.70;;
63926;SDS011;50103;47.960;21.712;2022-10-16T18:16:02;41.60;;;24.50;;
63926;SDS011;50103;47.960;21.712;2022-10-16T18:18:34;43.70;;;23.80;;
63926;SDS011;50103;47.960;21.712;2022-10-16T18:21:08;41.40;;;24.50;;
63926;SDS011;50103;47.960;21.712;2022-10-16T18:23:43;43.90;;;23.90;;
63926;SDS011;50103;47.960;21.712;2022-10-16T18:26:13;45.50;;;24.00;;
63926;SDS011;50103;47.960;21.712;2022-10-16T18:28:43;42.10;;;22.20;;
63926;SDS011;50103;47.960;21.712;2022-10-16T18:31:11;40.50;;;23.10;;
63926;SDS011;50103;47.960;21.712;2022-10-16T18:33:39;43.20;;;22.60;;
63926;SDS011;50103;47.960;21.712;2022-10-16T18:36:22;41.90;;;23.10;;
63926;SDS011;50103;47.960;21.712;2022-10-16T18:41:19;39.70;;;21.90;;
63926;SDS011;50103;47.960;21.712;2022-10-16T18:43:44;37.70;;;24.10;;
63926;SDS011;50103;47.960;21.712;2022-10-16T18:46:11;42.80;;;25.60;;
63926;SDS011;50103;47.960;21.712;2022-10-16T18:48:40;46.70;;;28.20;;
63926;SDS011;50103;47.960;21.712;2022-10-16T18:51:07;45.60;;;27.70;;
63926;SDS011;50103;47.960;21.712;2022-10-16T18:53:38;52.70;;;28.30;;
63926;SDS011;50103;47.960;21.712;2022-10-16T18:56:06;42.90;;;25.30;;
63926;SDS011;50103;47.960;21.712;2022-10-16T18:58:35;46.70;;;26.70;;
